createdAt,value
2022-10-20T00:04:19.670Z,7.93
2022-10-20T00:06:47.651Z,10.63
2022-10-20T00:09:16.601Z,8.03
2022-10-20T00:11:45.886Z,6.37
2022-10-20T00:14:13.686Z,5.97
2022-10-20T00:16:41.511Z,10.13
2022-10-20T00:19:09.148Z,5.37
2022-10-20T00:21:36.727Z,13.80
2022-10-20T00:24:04.721Z,7.20
2022-10-20T00:26:34.528Z,5.40
2022-10-20T00:29:03.466Z,6.80
2022-10-20T00:31:31.788Z,10.43
2022-10-20T00:33:59.330Z,5.77
2022-10-20T00:36:27.008Z,16.27
2022-10-20T00:38:58.988Z,5.77
2022-10-20T00:41:26.950Z,8.70
2022-10-20T00:43:57.996Z,5.50
2022-10-20T00:46:29.638Z,6.33
2022-10-20T00:48:59.577Z,13.83
2022-10-20T00:51:30.070Z,7.70
2022-10-20T00:54:04.328Z,5.23
2022-10-20T00:56:32.826Z,5.50
2022-10-20T00:59:03.480Z,5.40
2022-10-20T01:01:31.231Z,6.83
2022-10-20T01:03:59.237Z,10.23
2022-10-20T01:06:26.853Z,10.53
2022-10-20T01:08:55.583Z,4.67
2022-10-20T01:11:33.225Z,6.90
2022-10-20T01:14:15.399Z,6.67
2022-10-20T01:16:52.932Z,8.80
2022-10-20T01:19:55.810Z,7.80
2022-10-20T01:22:37.457Z,6.83
2022-10-20T01:25:18.985Z,4.97
2022-10-20T01:27:51.622Z,5.23
2022-10-20T01:30:21.179Z,7.90
2022-10-20T01:33:02.528Z,6.27
2022-10-20T01:35:40.682Z,4.50
2022-10-20T01:38:17.028Z,6.40
2022-10-20T01:40:49.524Z,8.50
2022-10-20T01:43:22.771Z,6.40
2022-10-20T01:45:53.528Z,10.40
2022-10-20T01:48:24.742Z,4.40
2022-10-20T01:50:52.991Z,6.73
2022-10-20T01:53:21.360Z,6.90
2022-10-20T01:55:51.909Z,8.13
2022-10-20T01:58:45.165Z,7.23
2022-10-20T02:01:21.366Z,5.20
2022-10-20T02:03:54.082Z,4.60
2022-10-20T02:06:32.349Z,8.67
2022-10-20T02:09:02.443Z,5.63
2022-10-20T02:11:39.548Z,5.30
2022-10-20T02:14:11.181Z,6.43
2022-10-20T02:16:44.113Z,12.13
2022-10-20T02:19:14.325Z,8.27
2022-10-20T02:21:41.974Z,4.60
2022-10-20T02:24:10.878Z,11.10
2022-10-20T02:26:41.087Z,9.47
2022-10-20T02:29:14.907Z,11.60
2022-10-20T02:31:43.745Z,6.90
2022-10-20T02:34:12.113Z,6.03
2022-10-20T02:36:41.547Z,4.90
2022-10-20T02:39:09.874Z,8.67
2022-10-20T02:41:38.098Z,4.93
2022-10-20T02:44:05.831Z,5.83
2022-10-20T02:46:34.843Z,7.80
2022-10-20T02:49:02.476Z,4.93
2022-10-20T02:51:30.083Z,15.60
2022-10-20T02:53:57.933Z,5.20
2022-10-20T02:56:27.613Z,5.77
2022-10-20T02:58:57.857Z,5.30
2022-10-20T03:01:25.861Z,7.83
2022-10-20T03:03:58.558Z,5.57
2022-10-20T03:06:26.763Z,5.60
2022-10-20T03:08:54.508Z,6.47
2022-10-20T03:11:22.215Z,8.47
2022-10-20T03:13:49.868Z,10.60
2022-10-20T03:16:17.563Z,6.70
2022-10-20T03:18:45.161Z,7.20
2022-10-20T03:21:14.028Z,5.43
2022-10-20T03:23:41.674Z,8.20
2022-10-20T03:26:11.410Z,11.90
2022-10-20T03:28:40.490Z,4.93
2022-10-20T03:31:08.816Z,6.30
2022-10-20T03:33:36.379Z,5.20
2022-10-20T03:36:04.644Z,9.03
2022-10-20T03:38:33.592Z,7.80
2022-10-20T03:43:33.745Z,6.07
2022-10-20T03:46:05.515Z,10.03
2022-10-20T03:48:33.692Z,5.17
2022-10-20T03:51:02.278Z,5.37
2022-10-20T03:53:30.568Z,6.03
2022-10-20T03:55:59.806Z,5.73
2022-10-20T03:58:27.324Z,5.30
2022-10-20T04:00:55.400Z,6.67
2022-10-20T04:03:22.939Z,5.83
2022-10-20T04:05:50.808Z,5.73
2022-10-20T04:08:18.367Z,6.50
2022-10-20T04:10:45.947Z,8.20
2022-10-20T04:13:14.869Z,6.67
2022-10-20T04:15:42.476Z,7.60
2022-10-20T04:18:10.148Z,9.23
2022-10-20T04:20:39.405Z,5.70
2022-10-20T04:23:09.644Z,6.20
2022-10-20T04:25:45.312Z,11.63
2022-10-20T04:28:13.077Z,13.23
2022-10-20T04:30:42.521Z,7.83
2022-10-20T04:33:10.458Z,8.00
2022-10-20T04:35:38.049Z,5.07
2022-10-20T04:38:06.441Z,10.00
2022-10-20T04:40:34.256Z,11.47
2022-10-20T04:43:02.268Z,11.17
2022-10-20T04:45:29.941Z,10.00
2022-10-20T04:47:58.877Z,8.87
2022-10-20T04:50:26.539Z,8.30
2022-10-20T04:52:54.116Z,7.63
2022-10-20T04:55:21.811Z,7.17
2022-10-20T04:57:49.592Z,7.97
2022-10-20T05:00:17.345Z,6.13
2022-10-20T05:02:45.050Z,8.30
2022-10-20T05:05:14.293Z,5.43
2022-10-20T05:07:41.809Z,7.77
2022-10-20T05:10:09.995Z,7.43
2022-10-20T05:12:37.884Z,9.37
2022-10-20T05:15:06.630Z,8.50
2022-10-20T05:17:34.171Z,5.70
2022-10-20T05:20:01.727Z,9.50
2022-10-20T05:22:31.745Z,9.03
2022-10-20T05:25:12.728Z,11.40
2022-10-20T05:27:46.812Z,7.30
2022-10-20T05:30:14.358Z,7.70
2022-10-20T05:32:41.900Z,10.60
2022-10-20T05:35:10.031Z,8.33
2022-10-20T05:37:38.930Z,8.43
2022-10-20T05:40:08.216Z,7.90
2022-10-20T05:42:36.862Z,19.27
2022-10-20T05:45:05.360Z,6.40
2022-10-20T05:47:33.267Z,5.73
2022-10-20T05:50:00.778Z,7.37
2022-10-20T05:52:28.601Z,13.87
2022-10-20T05:54:57.512Z,7.63
2022-10-20T05:57:25.099Z,8.03
2022-10-20T05:59:52.652Z,9.60
2022-10-20T06:02:20.814Z,10.33
2022-10-20T06:04:48.352Z,16.40
2022-10-20T06:07:16.187Z,9.00
2022-10-20T06:09:43.708Z,11.23
2022-10-20T06:12:12.597Z,10.27
2022-10-20T06:14:40.221Z,11.30
2022-10-20T06:17:07.762Z,7.70
2022-10-20T06:19:35.380Z,10.67
2022-10-20T06:22:05.940Z,8.30
2022-10-20T06:24:34.642Z,10.93
2022-10-20T06:27:02.291Z,7.87
2022-10-20T06:29:31.197Z,10.53
2022-10-20T06:31:58.703Z,13.63
2022-10-20T06:34:27.256Z,10.87
2022-10-20T06:36:54.874Z,19.90
2022-10-20T06:39:24.537Z,8.70
2022-10-20T06:41:53.353Z,16.00
2022-10-20T06:44:22.642Z,8.97
2022-10-20T06:46:52.684Z,7.93
2022-10-20T06:49:20.772Z,10.23
2022-10-20T06:51:48.626Z,10.60
2022-10-20T06:54:16.251Z,13.57
2022-10-20T06:56:43.771Z,10.73
2022-10-20T06:59:13.292Z,9.50
2022-10-20T07:01:42.143Z,10.23
2022-10-20T07:04:15.328Z,12.37
2022-10-20T07:06:45.415Z,10.70
2022-10-20T07:09:15.113Z,16.90
2022-10-20T07:11:43.125Z,19.30
2022-10-20T07:14:12.406Z,11.97
2022-10-20T07:16:40.115Z,11.43
2022-10-20T07:19:07.768Z,12.17
2022-10-20T07:21:40.199Z,13.47
2022-10-20T07:24:09.621Z,17.13
2022-10-20T07:26:39.242Z,11.53
2022-10-20T07:29:07.283Z,14.37
2022-10-20T07:31:37.686Z,11.60
2022-10-20T07:34:20.407Z,11.83
2022-10-20T07:36:54.318Z,10.70
2022-10-20T07:39:22.115Z,11.50
2022-10-20T07:41:49.698Z,11.10
2022-10-20T07:44:18.053Z,15.23
2022-10-20T07:46:45.831Z,13.00
2022-10-20T07:52:02.407Z,29.23
2022-10-20T07:54:30.037Z,9.83
2022-10-20T07:56:57.577Z,12.33
2022-10-20T07:59:25.337Z,12.43
2022-10-20T08:01:57.392Z,11.13
2022-10-20T08:04:26.288Z,14.33
2022-10-20T08:06:53.919Z,13.87
2022-10-20T08:09:22.832Z,13.30
2022-10-20T08:11:54.604Z,14.23
2022-10-20T08:14:23.929Z,14.63
2022-10-20T08:19:48.223Z,18.70
2022-10-20T08:22:16.173Z,18.37
2022-10-20T08:24:45.111Z,14.50
2022-10-20T08:27:12.709Z,16.43
2022-10-20T08:29:40.399Z,16.13
2022-10-20T08:32:08.281Z,20.80
2022-10-20T08:34:35.902Z,17.27
2022-10-20T08:37:03.600Z,15.30
2022-10-20T08:39:31.326Z,14.10
2022-10-20T08:42:08.507Z,22.83
2022-10-20T08:44:38.258Z,14.67
2022-10-20T08:47:15.127Z,21.40
2022-10-20T08:49:45.700Z,17.97
2022-10-20T08:52:15.789Z,14.63
2022-10-20T08:54:43.728Z,17.37
2022-10-20T08:57:23.258Z,15.47
2022-10-20T08:59:53.410Z,16.70
2022-10-20T09:02:21.365Z,22.87
2022-10-20T09:04:52.600Z,14.37
2022-10-20T09:07:26.567Z,25.20
2022-10-20T09:09:58.874Z,16.20
2022-10-20T09:12:31.120Z,18.90
2022-10-20T09:14:58.955Z,15.53
2022-10-20T09:17:26.645Z,21.93
2022-10-20T09:19:58.723Z,21.60
2022-10-20T09:22:33.347Z,20.83
2022-10-20T09:25:03.202Z,14.27
2022-10-20T09:27:35.165Z,19.40
2022-10-20T09:30:15.603Z,21.13
2022-10-20T09:32:56.300Z,15.70
2022-10-20T09:35:27.004Z,16.20
2022-10-20T09:37:59.441Z,21.03
2022-10-20T09:40:27.843Z,20.90
2022-10-20T09:43:00.043Z,17.27
2022-10-20T09:45:30.529Z,15.77
2022-10-20T09:48:04.277Z,14.07
2022-10-20T09:50:34.719Z,17.10
2022-10-20T09:53:05.802Z,15.27
2022-10-20T09:55:36.054Z,16.83
2022-10-20T09:58:06.861Z,17.17
2022-10-20T10:00:39.444Z,17.57
2022-10-20T10:03:20.838Z,17.53
2022-10-20T10:05:52.892Z,15.30
2022-10-20T10:08:22.652Z,16.30
2022-10-20T10:11:00.637Z,15.77
2022-10-20T10:13:32.125Z,18.87
2022-10-20T10:16:02.640Z,18.53
2022-10-20T10:18:30.795Z,20.63
2022-10-20T10:21:01.160Z,24.90
2022-10-20T10:23:30.151Z,23.63
2022-10-20T10:26:02.023Z,18.40
2022-10-20T10:28:38.490Z,28.63
2022-10-20T10:31:22.327Z,15.47
2022-10-20T10:33:52.870Z,23.33
2022-10-20T10:36:34.167Z,21.17
2022-10-20T10:39:03.188Z,16.93
2022-10-20T10:41:51.735Z,18.43
2022-10-20T10:44:34.790Z,19.10
2022-10-20T10:47:15.061Z,21.33
2022-10-20T10:49:54.710Z,19.90
2022-10-20T10:52:35.921Z,17.40
2022-10-20T10:55:30.549Z,16.40
2022-10-20T11:00:56.913Z,18.50
2022-10-20T11:04:03.887Z,25.53
2022-10-20T11:06:38.133Z,22.10
2022-10-20T11:09:20.806Z,16.63
2022-10-20T11:12:15.977Z,19.10
2022-10-20T11:14:58.438Z,18.60
2022-10-20T11:17:43.947Z,16.47
2022-10-20T11:20:27.449Z,18.20
2022-10-20T11:23:22.776Z,17.83
2022-10-20T11:25:57.173Z,16.90
2022-10-20T11:28:32.177Z,22.10
2022-10-20T11:31:00.407Z,19.97
2022-10-20T11:33:39.330Z,18.43
2022-10-20T11:36:15.872Z,16.07
2022-10-20T11:38:47.888Z,17.33
2022-10-20T11:41:19.253Z,14.87
2022-10-20T11:43:54.078Z,17.27
2022-10-20T11:46:26.667Z,16.67
2022-10-20T11:49:00.219Z,15.87
2022-10-20T11:51:56.510Z,18.57
2022-10-20T11:54:44.877Z,15.17
2022-10-20T11:57:24.389Z,12.93
2022-10-20T12:00:11.598Z,19.23
2022-10-20T12:03:13.399Z,22.77
2022-10-20T12:06:09.957Z,18.93
2022-10-20T12:09:21.660Z,15.47
2022-10-20T12:11:54.737Z,20.80
2022-10-20T12:14:28.635Z,11.73
2022-10-20T12:17:21.854Z,20.17
2022-10-20T12:19:51.603Z,24.93
2022-10-20T12:22:40.665Z,13.50
2022-10-20T12:25:36.810Z,14.67
2022-10-20T12:28:43.114Z,20.47
2022-10-20T12:31:10.687Z,19.57
2022-10-20T12:33:42.058Z,14.63
2022-10-20T12:36:34.294Z,16.77
2022-10-20T12:39:16.966Z,16.20
2022-10-20T12:41:56.528Z,17.13
2022-10-20T12:44:24.688Z,18.93
2022-10-20T12:46:59.038Z,17.43
2022-10-20T12:49:31.403Z,17.23
2022-10-20T12:52:00.445Z,12.40
2022-10-20T12:54:35.586Z,17.43
2022-10-20T12:57:06.516Z,16.63
2022-10-20T12:59:40.242Z,13.67
2022-10-20T13:02:47.724Z,19.90
2022-10-20T13:05:49.153Z,16.20
2022-10-20T13:08:29.732Z,16.10
2022-10-20T13:11:41.746Z,16.90
2022-10-20T13:14:33.294Z,18.83
2022-10-20T13:17:07.541Z,14.63
2022-10-20T13:19:44.468Z,16.33
2022-10-20T13:22:37.866Z,14.17
2022-10-20T13:25:14.076Z,16.17
2022-10-20T13:27:43.057Z,17.40
2022-10-20T13:30:19.262Z,19.83
2022-10-20T13:33:11.202Z,15.33
2022-10-20T13:35:51.647Z,18.93
2022-10-20T13:38:25.352Z,15.80
2022-10-20T13:43:39.578Z,18.60
2022-10-20T13:46:22.167Z,18.43
2022-10-20T13:49:13.322Z,24.30
2022-10-20T13:51:45.139Z,23.00
2022-10-20T13:54:22.595Z,17.70
2022-10-20T13:56:51.231Z,24.40
2022-10-20T13:59:24.730Z,21.30
2022-10-20T14:01:55.209Z,22.40
2022-10-20T14:04:28.087Z,21.27
2022-10-20T14:06:56.381Z,18.53
2022-10-20T14:09:26.074Z,20.00
2022-10-20T14:11:57.094Z,18.70
2022-10-20T14:14:28.245Z,20.60
2022-10-20T14:16:58.454Z,16.60
2022-10-20T14:19:28.095Z,27.83
2022-10-20T14:21:57.813Z,19.97
2022-10-20T14:24:31.953Z,18.50
2022-10-20T14:27:01.552Z,22.27
2022-10-20T14:29:35.530Z,20.00
2022-10-20T14:32:03.240Z,18.93
2022-10-20T14:34:37.670Z,21.97
2022-10-20T14:37:08.564Z,25.43
2022-10-20T14:39:38.681Z,18.87
2022-10-20T14:42:20.001Z,18.40
2022-10-20T14:44:50.468Z,25.37
2022-10-20T14:47:19.991Z,20.73
2022-10-20T14:49:52.377Z,19.63
2022-10-20T14:52:23.043Z,20.57
2022-10-20T14:54:51.471Z,19.30
2022-10-20T14:57:31.760Z,22.03
2022-10-20T15:00:03.971Z,18.60
2022-10-20T15:02:33.544Z,20.33
2022-10-20T15:05:23.273Z,19.10
2022-10-20T15:07:51.534Z,23.30
2022-10-20T15:10:21.645Z,22.10
2022-10-20T15:12:52.106Z,25.77
2022-10-20T15:15:23.955Z,20.27
2022-10-20T15:17:53.114Z,29.00
2022-10-20T15:20:33.147Z,28.97
2022-10-20T15:23:02.699Z,21.30
2022-10-20T15:25:32.028Z,22.57
2022-10-20T15:28:00.400Z,26.83
2022-10-20T15:30:30.124Z,25.50
2022-10-20T15:32:57.804Z,19.47
2022-10-20T15:35:25.651Z,25.50
2022-10-20T15:37:54.654Z,21.93
2022-10-20T15:40:22.619Z,24.07
2022-10-20T15:42:50.212Z,23.27
2022-10-20T15:45:19.782Z,26.20
2022-10-20T15:47:48.763Z,22.93
2022-10-20T15:50:18.490Z,32.83
2022-10-20T15:52:48.134Z,24.60
2022-10-20T15:55:22.545Z,25.37
2022-10-20T15:57:51.474Z,22.33
2022-10-20T16:00:20.154Z,25.40
2022-10-20T16:02:50.263Z,23.77
2022-10-20T16:05:19.078Z,35.53
2022-10-20T16:07:47.182Z,25.70
2022-10-20T16:10:15.110Z,24.83
2022-10-20T16:12:42.678Z,28.63
2022-10-20T16:15:12.189Z,24.27
2022-10-20T16:17:39.891Z,22.10
2022-10-20T16:20:10.378Z,30.00
2022-10-20T16:22:38.422Z,23.70
2022-10-20T16:25:07.042Z,24.50
2022-10-20T16:27:35.360Z,22.10
2022-10-20T16:30:04.572Z,28.10
2022-10-20T16:32:34.634Z,24.00
2022-10-20T16:35:03.544Z,25.53
2022-10-20T16:37:33.123Z,28.60
2022-10-20T16:40:00.950Z,27.57
2022-10-20T16:42:30.247Z,26.63
2022-10-20T16:44:58.556Z,28.60
2022-10-20T16:47:26.847Z,31.97
2022-10-20T16:49:54.515Z,24.37
2022-10-20T16:52:22.285Z,25.43
2022-10-20T16:54:51.182Z,23.40
2022-10-20T16:57:18.743Z,23.33
2022-10-20T16:59:49.860Z,22.70
2022-10-20T17:02:18.470Z,26.17
2022-10-20T17:04:49.191Z,23.17
2022-10-20T17:07:16.924Z,30.70
2022-10-20T17:09:44.612Z,25.60
2022-10-20T17:12:13.610Z,28.27
2022-10-20T17:14:41.568Z,31.33
2022-10-20T17:17:09.269Z,30.27
2022-10-20T17:19:36.900Z,34.67
2022-10-20T17:22:04.527Z,42.37
2022-10-20T17:24:32.191Z,28.97
2022-10-20T17:26:59.713Z,27.43
2022-10-20T17:29:28.726Z,29.70
2022-10-20T17:31:56.261Z,24.97
2022-10-20T17:34:23.851Z,31.10
2022-10-20T17:36:51.455Z,26.03
2022-10-20T17:39:21.958Z,31.40
2022-10-20T17:41:49.544Z,30.97
2022-10-20T17:44:17.182Z,27.00
2022-10-20T17:46:46.176Z,27.33
2022-10-20T17:49:14.111Z,38.40
2022-10-20T17:51:43.504Z,23.80
2022-10-20T17:54:11.338Z,26.10
2022-10-20T17:56:40.089Z,23.43
2022-10-20T17:59:08.524Z,24.60
2022-10-20T18:01:37.912Z,30.30
2022-10-20T18:04:09.143Z,30.07
2022-10-20T18:06:37.679Z,26.33
2022-10-20T18:09:10.678Z,29.30
2022-10-20T18:11:40.073Z,29.27
2022-10-20T18:14:07.723Z,32.10
2022-10-20T18:16:37.978Z,31.50
2022-10-20T18:19:07.894Z,35.00
2022-10-20T18:21:36.115Z,81.87
2022-10-20T18:24:06.432Z,172.33
2022-10-20T18:26:36.045Z,237.27
2022-10-20T18:29:05.033Z,50.03
2022-10-20T18:31:34.714Z,36.70
2022-10-20T18:34:06.867Z,35.10
2022-10-20T18:36:40.706Z,54.50
2022-10-20T18:39:11.557Z,39.40
2022-10-20T18:41:41.113Z,39.27
2022-10-20T18:44:12.451Z,37.17
2022-10-20T18:46:40.858Z,26.10
2022-10-20T18:49:10.082Z,28.50
2022-10-20T18:51:39.049Z,28.07
2022-10-20T18:54:08.482Z,33.47
2022-10-20T18:56:36.916Z,29.37
2022-10-20T18:59:09.130Z,31.30
2022-10-20T19:01:38.527Z,28.77
2022-10-20T19:04:07.485Z,32.90
2022-10-20T19:06:37.641Z,25.37
2022-10-20T19:09:09.047Z,30.27
2022-10-20T19:11:39.128Z,29.27
2022-10-20T19:14:09.440Z,27.30
2022-10-20T19:16:37.826Z,25.60
2022-10-20T19:19:07.973Z,32.90
2022-10-20T19:21:38.996Z,26.63
2022-10-20T19:24:10.178Z,35.70
2022-10-20T19:26:40.454Z,27.00
2022-10-20T19:29:10.817Z,32.03
2022-10-20T19:31:41.256Z,28.70
2022-10-20T19:34:11.338Z,32.77
2022-10-20T19:36:40.442Z,28.70
2022-10-20T19:39:12.015Z,32.20
2022-10-20T19:41:39.870Z,28.23
2022-10-20T19:44:07.914Z,29.87
2022-10-20T19:46:35.473Z,27.50
2022-10-20T19:49:03.217Z,33.87
2022-10-20T19:51:31.063Z,32.17
2022-10-20T19:53:59.453Z,28.77
2022-10-20T19:56:28.510Z,31.63
2022-10-20T19:58:56.310Z,29.27
2022-10-20T20:01:24.189Z,28.43
2022-10-20T20:03:51.937Z,27.27
2022-10-20T20:06:21.964Z,30.20
2022-10-20T20:08:52.703Z,30.73
2022-10-20T20:11:26.287Z,30.40
2022-10-20T20:13:57.964Z,33.00
2022-10-20T20:16:26.058Z,29.10
2022-10-20T20:18:54.164Z,37.60
2022-10-20T20:21:23.002Z,30.90
2022-10-20T20:23:59.326Z,34.97
2022-10-20T20:26:27.975Z,31.23
2022-10-20T20:28:57.553Z,30.97
2022-10-20T20:31:25.781Z,34.47
2022-10-20T20:33:54.306Z,35.50
2022-10-20T20:36:22.531Z,29.73
2022-10-20T20:38:52.578Z,30.07
2022-10-20T20:41:24.463Z,33.00
2022-10-20T20:43:52.132Z,33.30
2022-10-20T20:46:26.863Z,30.97
2022-10-20T20:48:54.526Z,30.50
2022-10-20T20:51:22.996Z,33.60
2022-10-20T20:53:50.751Z,31.30
2022-10-20T20:56:21.779Z,39.23
2022-10-20T20:58:55.004Z,34.70
2022-10-20T21:01:27.283Z,33.63
2022-10-20T21:03:56.212Z,36.33
2022-10-20T21:06:33.086Z,30.80
2022-10-20T21:09:02.436Z,38.13
2022-10-20T21:11:30.239Z,37.17
2022-10-20T21:13:58.868Z,29.43
2022-10-20T21:16:30.280Z,33.37
2022-10-20T21:18:59.797Z,34.73
2022-10-20T21:21:29.611Z,26.40
2022-10-20T21:23:58.073Z,28.97
2022-10-20T21:26:26.397Z,33.37
2022-10-20T21:28:54.694Z,30.57
2022-10-20T21:31:24.953Z,28.80
2022-10-20T21:33:55.856Z,30.27
2022-10-20T21:36:24.036Z,28.50
2022-10-20T21:38:52.201Z,33.23
2022-10-20T21:41:21.359Z,33.43
2022-10-20T21:43:50.772Z,26.77
2022-10-20T21:46:20.622Z,25.43
2022-10-20T21:48:51.007Z,31.77
2022-10-20T21:51:23.022Z,25.70
2022-10-20T21:53:51.136Z,27.13
2022-10-20T21:56:18.665Z,29.70
2022-10-20T21:58:46.372Z,27.40
2022-10-20T22:01:16.350Z,31.10
2022-10-20T22:03:44.974Z,31.20
2022-10-20T22:06:14.598Z,29.47
2022-10-20T22:08:45.762Z,30.40
2022-10-20T22:11:15.589Z,23.87
2022-10-20T22:13:43.497Z,26.90
2022-10-20T22:16:14.954Z,31.17
2022-10-20T22:18:42.774Z,31.93
2022-10-20T22:21:13.698Z,26.63
2022-10-20T22:23:43.433Z,27.97
2022-10-20T22:26:12.006Z,27.10
2022-10-20T22:28:39.757Z,20.60
2022-10-20T22:31:08.234Z,25.30
2022-10-20T22:33:36.258Z,36.53
2022-10-20T22:36:03.970Z,26.63
2022-10-20T22:38:32.077Z,30.10
2022-10-20T22:41:01.437Z,26.33
2022-10-20T22:43:29.814Z,22.80
2022-10-20T22:45:57.666Z,29.30
2022-10-20T22:48:25.630Z,31.57
2022-10-20T22:50:53.269Z,26.10
2022-10-20T22:53:20.851Z,22.67
2022-10-20T22:55:48.417Z,20.50
2022-10-20T22:58:17.352Z,23.53
2022-10-20T23:00:44.964Z,19.50
2022-10-20T23:03:12.551Z,24.50
2022-10-20T23:05:40.079Z,21.77
2022-10-20T23:08:07.862Z,24.47
2022-10-20T23:10:35.396Z,23.37
2022-10-20T23:13:03.080Z,24.40
2022-10-20T23:15:32.050Z,20.70
2022-10-20T23:17:59.621Z,23.57
2022-10-20T23:20:27.307Z,23.67
2022-10-20T23:22:54.926Z,18.93
2022-10-20T23:25:22.476Z,27.30
2022-10-20T23:27:50.034Z,26.80
2022-10-20T23:30:17.711Z,21.40
2022-10-20T23:32:46.707Z,23.13
2022-10-20T23:35:14.513Z,27.00
2022-10-20T23:37:42.152Z,19.43
2022-10-20T23:40:10.695Z,25.60
2022-10-20T23:42:38.275Z,22.00
2022-10-20T23:45:06.818Z,22.07
2022-10-20T23:47:34.589Z,20.50
2022-10-20T23:50:03.988Z,21.63
2022-10-20T23:52:31.583Z,20.60
2022-10-20T23:54:59.414Z,22.57
2022-10-20T23:57:27.071Z,20.00
2022-10-20T23:59:54.707Z,18.50
